Nearby METAR Reports

 

KLOM - Philly Wings F, Pennsylvania, USA
Distance from station: SW 6mi, 10km
Updated: Thu, 17-Apr-2014 2:15pm EDT
Partly cloudy
Partly cloudy
 Wind from E
Wind: E 13 mph , 20 km/h, Gust: 16 mph , 26 km/h
Temperature: 52°F , 11°C
Dew Point: 30°F , -1°C
Humidity: 44%
Barometer: 30.64 inHg , 1037.6 hPa
Clouds: Partly cloudy
Visibility: 10 miles , 16 km
Cloud details: Partly cloudy 4800 ft
2014/04/17 18:15 KLOM 171815Z AUTO 08011G14KT 10SM SCT048 11/M01 A3064 RMK AO1
KDYL - Doylestown, Pennsylvania, USA
Distance from station: NNE 10mi, 17km
Updated: Thu, 17-Apr-2014 1:54pm EDT
Clear
Clear
 Wind from varies
Wind: varies 5 mph , 7 km/h
Temperature: 46°F , 8°C
Wind Chill: 44°F , 7°C
Dew Point: 28°F , -2°C
Humidity: 50%
Barometer: 30.65 inHg , 1037.9 hPa
Clouds: Clear
Visibility: 10 miles , 16 km
2014/04/17 17:54 KDYL 171754Z AUTO VRB04KT 10SM CLR 08/M02 A3065 RMK AO2 SLP385 T00831017 10089 20017 56015
KPNE - Philadelphia/Ne, Pennsylvania, USA
Distance from station: SE 11mi, 18km
Updated: Thu, 17-Apr-2014 1:54pm EDT
Partly cloudy
Partly cloudy
 Wind from SE
Wind: SE 12 mph , 19 km/h
Temperature: 50°F , 10°C
Wind Chill: 45°F , 7°C
Dew Point: 27°F , -3°C
Humidity: 40%
Barometer: 30.69 inHg , 1039.3 hPa
Clouds: Partly cloudy
Visibility: 10 miles , 16 km
Cloud details: Partly cloudy 4300 ft
2014/04/17 17:54 KPNE 171754Z 13010KT 10SM SCT043 10/M03 A3069 RMK AO2 SLP392 T01001028 10106 20044 58012
 
KPTW - Pottstown, Pennsylvania, USA
Distance from station: W 20mi, 32km
Updated: Thu, 17-Apr-2014 1:54pm EDT
Clear
Clear
 Wind from ESE
Wind: ESE 6 mph , 9 km/h
Temperature: 50°F , 10°C
Wind Chill: 48°F , 9°C
Dew Point: 27°F , -3°C
Humidity: 40%
Barometer: 30.66 inHg , 1038.3 hPa
Clouds: Clear
Visibility: 10 miles , 16 km
2014/04/17 17:54 KPTW 171754Z AUTO 11005KT 10SM CLR 10/M03 A3066 RMK AO2 SLP381 T01001033 10100 20022 56016
KTTN - Trenton, New Jersey, USA
Distance from station: ENE 20mi, 32km
Updated: Thu, 17-Apr-2014 1:53pm EDT
Mostly cloudy
Mostly cloudy
 Wind from ESE
Wind: ESE 13 mph , 20 km/h, Gust: 17 mph , 28 km/h
Temperature: 46°F , 8°C
Wind Chill: 40°F , 4°C
Dew Point: 28°F , -2°C
Humidity: 50%
Barometer: 30.67 inHg , 1038.6 hPa
Clouds: Mostly cloudy
Visibility: 10 miles , 16 km
Cloud details: Mostly cloudy 3900 ft
2014/04/17 17:53 KTTN 171753Z 12011G15KT 10SM BKN039 08/M02 A3067 RMK AO2 SLP381 T00831022 10094 20033 56013
KUKT - Quakertown Arp, Pennsylvania, USA
Distance from station: NNW 20mi, 32km
Updated: Thu, 17-Apr-2014 2:15pm EDT
Clear
Clear
 Wind from ESE
Wind: ESE 9 mph , 15 km/h
Temperature: 50°F , 10°C
Wind Chill: 46°F , 8°C
Dew Point: 25°F , -4°C
Humidity: 37%
Barometer: 30.65 inHg , 1037.9 hPa
Clouds: Clear
Visibility: 10 miles , 16 km
2014/04/17 18:15 KUKT 171815Z AUTO 11008KT 090V160 10SM CLR 10/M04 A3065 RMK AO1
 
KPHL - Philadelphia, Pennsylvania, USA
Distance from station: S 22mi, 36km
Updated: Thu, 17-Apr-2014 1:54pm EDT
Partly cloudy
Partly cloudy
 Wind from E
Wind: E 13 mph , 20 km/h
Temperature: 54°F , 12°C
Dew Point: 28°F , -2°C
Humidity: 38%
Barometer: 30.66 inHg , 1038.3 hPa
Clouds: Partly cloudy
Visibility: 10 miles , 16 km
Cloud details: Few Clouds 5000 ft
Partly cloudy 25000 ft
2014/04/17 17:54 KPHL 171754Z 09011KT 10SM FEW050 SCT250 12/M02 A3066 RMK AO2 PK WND 10026/1725 SLP383 T01171022 10117 20050 58016 $
KVAY - Mount Holly, New Jersey, USA
Distance from station: SE 25mi, 41km
Updated: Thu, 17-Apr-2014 1:54pm EDT
Few Clouds
Few Clouds
 Wind from ESE
Wind: ESE 9 mph , 15 km/h, Gust: 20 mph , 31 km/h
Temperature: 46°F , 8°C
Wind Chill: 41°F , 5°C
Dew Point: 28°F , -2°C
Humidity: 50%
Barometer: 30.68 inHg , 1038.9 hPa
Clouds: Few Clouds
Visibility: 10 miles , 16 km
Cloud details: Few Clouds 4100 ft
2014/04/17 17:54 KVAY 171754Z AUTO 11008G17KT 10SM FEW041 08/M02 A3068 RMK AO2 SLP389 T00831017 10089 20028 58009
KXLL - Allentown Queen, Pennsylvania, USA
Distance from station: NNW 31mi, 49km
Updated: Thu, 17-Apr-2014 2:15pm EDT
Clear
Clear
 Wind from SE
Wind: SE 7 mph , 11 km/h, Gust: 16 mph , 26 km/h
Temperature: 50°F , 10°C
Wind Chill: 47°F , 8°C
Dew Point: 14°F , -10°C
Humidity: 24%
Barometer: 30.65 inHg , 1037.9 hPa
Clouds: Clear
Visibility: 10 miles , 16 km
2014/04/17 18:15 KXLL 171815Z AUTO 13006G14KT 10SM CLR 10/M10 A3065 RMK AO2
 
KWRI - Wrightst/Mcguire, New Jersey, USA
Distance from station: ESE 34mi, 54km
Updated: Thu, 17-Apr-2014 1:58pm EDT
Overcast
Overcast
 Wind from ENE
Wind: ENE 14 mph , 22 km/h, Gust: 22 mph , 35 km/h
Temperature: 48°F , 9°C
Wind Chill: 42°F , 6°C
Dew Point: 30°F , -1°C
Humidity: 50%
Barometer: 30.66 inHg , 1038.3 hPa
Clouds: Overcast
Visibility: 10 miles , 16 km
Cloud details: Overcast 3600 ft
2014/04/17 17:58 KWRI 171758Z AUTO 06012G19KT 10SM OVC036 09/M01 A3066 RMK AO2 SLP387 T00861012 10086 20037 58007
KABE - Allentown, Pennsylvania, USA
Distance from station: NNW 35mi, 56km
Updated: Thu, 17-Apr-2014 1:51pm EDT
Clear
Clear
 Wind from varies
Wind: varies 5 mph , 7 km/h
Temperature: 50°F , 10°C
Wind Chill: 48°F , 9°C
Dew Point: 19°F , -7°C
Humidity: 30%
Barometer: 30.65 inHg , 1037.9 hPa
Clouds: Clear
Visibility: 10 miles , 16 km
2014/04/17 17:51 KABE 171751Z VRB04KT 10SM CLR 10/M07 A3065 RMK AO2 SLP381 T01001072 10106 20017 56017
KMQS - Coatesville, Pennsylvania, USA
Distance from station: WSW 39mi, 63km
Updated: Thu, 17-Apr-2014 1:55pm EDT
Partly cloudy
Partly cloudy
 Wind from SE
Wind: SE 8 mph , 13 km/h, Gust: 20 mph , 31 km/h
Temperature: 50°F , 10°C
Wind Chill: 47°F , 8°C
Dew Point: 27°F , -3°C
Humidity: 40%
Barometer: 30.63 inHg , 1037.3 hPa
Clouds: Partly cloudy
Visibility: 10 miles , 16 km
Cloud details: Partly cloudy 4400 ft
2014/04/17 17:55 KMQS 171755Z AUTO 13007G17KT 10SM SCT044 10/M03 A3063 RMK AO2
 
KSMQ - Somerville, New Jersey, USA
Distance from station: NE 40mi, 64km
Updated: Thu, 17-Apr-2014 1:53pm EDT
Clear
Clear
 Wind from ESE
Wind: ESE 8 mph , 13 km/h, Gust: 18 mph , 30 km/h
Temperature: 48°F , 9°C
Wind Chill: 44°F , 7°C
Dew Point: 25°F , -4°C
Humidity: 40%
Barometer: 30.67 inHg , 1038.6 hPa
Clouds: Clear
Visibility: 10 miles , 16 km
2014/04/17 17:53 KSMQ 171753Z AUTO 12007G16KT 10SM CLR 09/M04 A3067 RMK AO2 SLP386 T00941044 10094 20028 56012
KILG - Wilmington, Delaware, USA
Distance from station: SSW 42mi, 68km
Updated: Thu, 17-Apr-2014 1:51pm EDT
Few Clouds
Few Clouds
 Wind from ENE
Wind: ENE 10 mph , 17 km/h, Gust: 17 mph , 28 km/h
Temperature: 54°F , 12°C
Dew Point: 28°F , -2°C
Humidity: 38%
Barometer: 30.65 inHg , 1037.9 hPa
Clouds: Few Clouds
Visibility: 10 miles , 16 km
Cloud details: Few Clouds 5000 ft
2014/04/17 17:51 KILG 171751Z 07009G15KT 10SM FEW050 12/M02 A3065 RMK AO2 SLP378 T01171022 10117 20050 58019
KRDG - Reading, Pennsylvania, USA
Distance from station: WNW 43mi, 70km
Updated: Thu, 17-Apr-2014 1:54pm EDT
Few Clouds
Few Clouds
 Wind from ESE
Wind: ESE 8 mph , 13 km/h
Temperature: 52°F , 11°C
Dew Point: 28°F , -2°C
Humidity: 41%
Barometer: 30.62 inHg , 1036.9 hPa
Clouds: Few Clouds
Visibility: 10 miles , 16 km
Cloud details: Few Clouds 5000 ft
2014/04/17 17:54 KRDG 171754Z 12007KT 070V140 10SM FEW050 11/M02 A3062 RMK AO2 SLP377 T01111022 10111 20028 56018
 
KNEL - Lakehurst Nas, New Jersey, USA
Distance from station: ESE 46mi, 74km
Updated: Thu, 17-Apr-2014 1:00pm EDT
NOT Current
Overcast
Overcast
 Wind from E
Wind: E 13 mph , 20 km/h, Gust: 22 mph , 35 km/h
Temperature: 43°F , 6°C
Wind Chill: 36°F , 2°C
Dew Point: 28°F , -2°C
Humidity: 57%
Barometer: 30.70 inHg , 1039.6 hPa
Clouds: Overcast
Cloud details: Overcast 3400 ft
2014/04/17 17:00 KNEL 171700Z AUTO 08011G19KT OVC034 06/M02 A3070 RMK AO2 SLP397 T00611022 $
KMJX - Toms River, New Jersey, USA
Distance from station: ESE 50mi, 80km
Updated: Thu, 17-Apr-2014 2:15pm EDT
Overcast
Overcast
 Wind from E
Wind: E 6 mph , 9 km/h
Temperature: 43°F , 6°C
Wind Chill: 39°F , 4°C
Dew Point: 28°F , -2°C
Humidity: 57%
Barometer: 30.70 inHg , 1039.6 hPa
Clouds: Overcast
Visibility: 10 miles , 16 km
Cloud details: Overcast 3300 ft
2014/04/17 18:15 KMJX 171815Z AUTO 08005KT 10SM OVC033 06/M02 A3070 RMK AO1